Time;durP1;ratioP1;P1;durP2;ratioP2;P2;SDS_P1;SDS_P2;PMS_P1;PMS_P2;Temp;Humidity;BMP_temperature;BMP_pressure;BME280_temperature;BME280_humidity;BME280_pressure;Samples;Min_cycle;Max_cycle;Signal;HPM_P1;HPM_P2
2024/03/22 00:02:17;;;;;;;13.07;11.73;;;;;;;13.21;58.20;100815.72;10434072;28;20811;-66
2024/03/22 00:07:17;;;;;;;14.07;11.82;;;;;;;13.18;58.69;100824.00;10417159;28;20049;-68
2024/03/22 00:12:18;;;;;;;15.07;12.88;;;;;;;13.12;58.84;100819.16;10425133;28;20090;-67
2024/03/22 00:17:18;;;;;;;12.55;11.25;;;;;;;13.06;59.90;100805.34;10392205;28;20048;-67
2024/03/22 00:22:18;;;;;;;13.60;12.20;;;;;;;12.96;59.78;100796.38;10411030;28;20068;-65
2024/03/22 00:27:20;;;;;;;13.23;11.90;;;;;;;12.95;59.90;100791.16;10403654;28;20079;-67
2024/03/22 00:32:20;;;;;;;16.10;12.15;;;;;;;12.94;60.53;100787.66;10398985;28;20054;-66
2024/03/22 00:37:21;;;;;;;17.27;14.27;;;;;;;12.94;60.60;100784.09;10428328;28;20521;-67
2024/03/22 00:42:21;;;;;;;14.10;12.70;;;;;;;12.79;61.31;100759.50;10415205;28;20167;-67
2024/03/22 00:47:21;;;;;;;14.13;12.68;;;;;;;12.94;60.97;100782.31;10427726;28;20079;-66
2024/03/22 00:52:23;;;;;;;15.50;12.50;;;;;;;12.89;60.61;100757.78;10428329;28;20045;-68
2024/03/22 00:57:24;;;;;;;15.88;12.63;;;;;;;12.96;60.96;100764.31;10430213;28;20723;-67
2024/03/22 01:02:24;;;;;;;16.85;13.70;;;;;;;12.89;61.27;100752.44;10420850;28;20040;-66
2024/03/22 01:07:25;;;;;;;14.27;12.88;;;;;;;12.88;61.41;100748.91;10402273;28;20075;-66
2024/03/22 01:12:25;;;;;;;13.93;12.30;;;;;;;12.80;61.51;100726.47;10411430;28;20082;-66
2024/03/22 01:17:26;;;;;;;13.48;12.18;;;;;;;12.79;61.73;100736.31;10392423;28;20116;-67
2024/03/22 01:22:26;;;;;;;13.52;12.02;;;;;;;12.82;61.84;100740.53;10411315;28;20044;-68
2024/03/22 01:27:30;;;;;;;14.10;12.60;;;;;;;12.73;62.10;100735.00;10387665;28;20140;-66
2024/03/22 01:32:32;;;;;;;14.37;12.60;;;;;;;12.70;62.17;100735.25;10423735;28;20136;-66
2024/03/22 01:37:33;;;;;;;15.00;13.20;;;;;;;12.66;62.14;100735.63;10427733;28;20159;-67
2024/03/22 01:42:33;;;;;;;15.40;13.80;;;;;;;12.63;62.99;100735.88;10430648;28;20052;-67
2024/03/22 01:47:34;;;;;;;15.13;13.60;;;;;;;12.57;63.44;100733.72;10401225;28;20099;-66
2024/03/22 01:52:34;;;;;;;14.25;12.75;;;;;;;12.53;63.46;100735.75;10432696;28;20068;-68
2024/03/22 01:57:38;;;;;;;16.25;14.63;;;;;;;12.44;63.79;100726.66;10388275;28;20561;-67
2024/03/22 02:02:38;;;;;;;17.05;14.13;;;;;;;12.38;64.29;100717.34;10420293;28;20931;-67
2024/03/22 02:07:40;;;;;;;17.13;13.90;;;;;;;12.33;64.30;100710.69;10414223;28;20975;-66
2024/03/22 02:12:40;;;;;;;16.40;14.48;;;;;;;12.26;64.70;100702.31;10430483;28;20680;-67
2024/03/22 02:17:41;;;;;;;14.38;12.82;;;;;;;12.32;64.73;100700.97;10421342;28;20040;-66
2024/03/22 02:22:41;;;;;;;13.63;12.23;;;;;;;12.29;64.27;100696.72;10419706;28;20560;-66
2024/03/22 02:27:43;;;;;;;12.98;11.45;;;;;;;12.27;64.15;100687.16;10431008;28;20049;-65
2024/03/22 02:32:43;;;;;;;12.82;11.52;;;;;;;12.27;64.07;100682.66;10434905;28;20583;-67
2024/03/22 02:37:44;;;;;;;14.55;13.05;;;;;;;12.14;64.75;100671.28;10413207;28;20052;-68
2024/03/22 02:42:44;;;;;;;14.77;12.68;;;;;;;12.00;65.18;100670.56;10441034;28;20064;-66
2024/03/22 02:47:45;;;;;;;15.02;13.43;;;;;;;11.97;65.34;100670.81;10437189;28;20465;-65
2024/03/22 02:52:45;;;;;;;15.00;12.65;;;;;;;11.97;65.61;100676.13;10431237;28;23263;-67
2024/03/22 02:57:46;;;;;;;14.50;12.85;;;;;;;11.98;66.16;100674.31;10419366;28;20124;-66
2024/03/22 03:02:46;;;;;;;14.25;11.95;;;;;;;11.99;65.70;100673.34;10409379;28;20075;-67
2024/03/22 03:07:47;;;;;;;14.02;11.90;;;;;;;11.92;65.13;100650.75;10428239;28;20117;-66
2024/03/22 03:12:47;;;;;;;12.70;11.40;;;;;;;11.98;65.00;100658.31;10398123;28;20144;-67
2024/03/22 03:17:48;;;;;;;14.73;12.57;;;;;;;11.84;66.19;100664.72;10385299;28;20146;-67
2024/03/22 03:22:48;;;;;;;14.95;13.25;;;;;;;11.80;67.01;100663.25;10419911;28;20140;-67
2024/03/22 03:27:48;;;;;;;16.65;14.68;;;;;;;11.72;68.23;100650.53;10416785;28;20503;-67
2024/03/22 03:32:50;;;;;;;15.68;14.00;;;;;;;11.60;68.53;100646.16;10426705;28;20186;-67
2024/03/22 03:37:50;;;;;;;20.42;15.55;;;;;;;11.45;69.37;100621.56;10431075;28;20055;-66
2024/03/22 03:42:51;;;;;;;16.45;14.35;;;;;;;11.48;70.35;100639.97;10402625;28;20059;-66
2024/03/22 03:47:53;;;;;;;16.73;14.60;;;;;;;11.45;70.76;100642.88;10427220;28;20457;-65
2024/03/22 03:52:53;;;;;;;16.95;14.38;;;;;;;11.34;70.32;100614.41;10403014;28;20610;-66
2024/03/22 03:57:53;;;;;;;17.60;14.32;;;;;;;11.38;70.38;100637.19;10390581;28;20045;-67
2024/03/22 04:02:54;;;;;;;16.73;14.55;;;;;;;11.24;71.10;100632.91;10415681;28;20133;-67
2024/03/22 04:07:54;;;;;;;15.88;14.23;;;;;;;11.13;71.37;100628.41;10426580;28;20071;-68
2024/03/22 04:12:55;;;;;;;15.52;13.55;;;;;;;11.19;70.82;100619.13;10418974;28;20043;-66
2024/03/22 04:17:56;;;;;;;16.50;14.77;;;;;;;11.21;70.92;100609.16;10426857;28;20080;-66
2024/03/22 04:22:56;;;;;;;15.20;13.57;;;;;;;11.20;70.95;100596.84;10428747;28;20160;-66
2024/03/22 04:27:57;;;;;;;17.38;14.05;;;;;;;11.24;70.76;100600.94;10421616;28;20822;-62
2024/03/22 04:32:57;;;;;;;16.75;13.10;;;;;;;11.22;71.17;100607.38;10428774;28;20045;-63
2024/03/22 04:37:58;;;;;;;16.27;14.15;;;;;;;11.19;71.35;100605.78;10411068;28;20098;-61
2024/03/22 04:42:58;;;;;;;16.23;14.52;;;;;;;11.19;71.58;100607.63;10431707;28;20126;-61
2024/03/22 04:48:04;;;;;;;16.52;14.18;;;;;;;11.22;71.57;100610.03;10407110;28;20041;-64
2024/03/22 04:53:05;;;;;;;17.10;14.55;;;;;;;11.12;71.76;100597.44;10390406;28;20067;-63
2024/03/22 04:58:06;;;;;;;15.25;12.68;;;;;;;11.19;71.53;100605.78;10424465;28;20152;-62
2024/03/22 05:03:07;;;;;;;15.48;13.85;;;;;;;11.13;72.14;100607.09;10431933;28;20127;-62
2024/03/22 05:08:09;;;;;;;15.52;12.85;;;;;;;11.11;72.02;100603.72;10419876;28;20139;-61
2024/03/22 05:13:10;;;;;;;18.35;13.40;;;;;;;11.24;71.22;100611.59;10421214;28;21563;-63
2024/03/22 05:18:10;;;;;;;13.65;12.02;;;;;;;11.21;71.59;100614.50;10438629;28;20048;-63
2024/03/22 05:23:11;;;;;;;15.38;13.77;;;;;;;11.12;72.02;100612.56;10419964;28;20412;-61
2024/03/22 05:28:11;;;;;;;15.20;13.65;;;;;;;11.16;72.03;100603.38;10425701;28;20051;-62
2024/03/22 05:33:12;;;;;;;14.30;12.25;;;;;;;11.22;71.84;100612.72;10430702;28;20113;-63
2024/03/22 05:38:13;;;;;;;13.05;11.73;;;;;;;11.09;71.67;100604.81;10423791;28;20064;-63
2024/03/22 05:43:14;;;;;;;13.35;11.05;;;;;;;11.11;71.91;100593.06;10430681;28;20138;-62
2024/03/22 05:48:14;;;;;;;13.85;12.38;;;;;;;11.20;71.40;100596.84;10431382;28;20124;-62
2024/03/22 05:53:14;;;;;;;12.27;10.23;;;;;;;11.25;71.83;100599.97;10407996;28;20135;-61
2024/03/22 05:58:15;;;;;;;15.20;11.63;;;;;;;11.19;71.54;100597.78;10420698;28;20044;-63
2024/03/22 06:03:15;;;;;;;15.85;11.80;;;;;;;11.25;71.43;100581.31;10396630;28;20128;-62
2024/03/22 06:08:20;;;;;;;14.85;11.50;;;;;;;11.30;71.23;100568.50;10394231;28;20049;-63
2024/03/22 06:13:20;;;;;;;;;;;;;;;11.42;71.21;100568.50;10393602;28;20174;-62
2024/03/22 06:18:20;;;;;;;16.33;11.83;;;;;;;11.44;71.09;100563.88;10424468;28;20432;-61
2024/03/22 06:23:22;;;;;;;15.57;11.15;;;;;;;11.35;70.40;100537.97;10399710;28;20813;-62
2024/03/22 06:28:22;;;;;;;13.25;10.60;;;;;;;11.43;70.75;100564.88;10430485;28;20123;-62
2024/03/22 06:33:23;;;;;;;11.98;10.63;;;;;;;11.52;70.25;100548.13;10428332;28;20108;-61
2024/03/22 06:38:23;;;;;;;11.77;10.27;;;;;;;11.42;69.70;100553.34;10428586;28;20055;-61
2024/03/22 06:43:25;;;;;;;14.43;10.88;;;;;;;11.41;70.15;100545.47;10412789;28;20064;-61
2024/03/22 06:48:25;;;;;;;12.82;11.43;;;;;;;11.28;70.35;100538.44;10434231;28;20195;-61
2024/03/22 06:53:27;;;;;;;13.23;11.13;;;;;;;11.33;70.65;100548.75;10428661;28;21137;-63
2024/03/22 06:58:28;;;;;;;13.27;10.57;;;;;;;11.46;70.06;100546.81;10421089;28;20055;-63
2024/03/22 07:03:29;;;;;;;12.70;10.05;;;;;;;11.41;70.02;100545.47;10424160;28;20072;-62
2024/03/22 07:08:30;;;;;;;12.38;10.30;;;;;;;11.47;69.72;100539.66;10405203;28;20131;-62
2024/03/22 07:13:31;;;;;;;12.73;10.15;;;;;;;11.57;69.74;100540.59;10413603;28;20136;-61
2024/03/22 07:18:31;;;;;;;11.52;9.75;;;;;;;11.57;69.70;100535.28;10421658;28;20123;-62
2024/03/22 07:23:32;;;;;;;11.48;10.27;;;;;;;11.58;69.74;100531.66;10412613;28;20053;-62
2024/03/22 07:28:33;;;;;;;13.00;10.85;;;;;;;11.50;70.05;100512.78;10422959;28;20171;-62
2024/03/22 07:33:40;;;;;;;13.93;10.90;;;;;;;11.54;70.89;100519.53;10483450;27;20835;-61
2024/03/22 07:38:41;;;;;;;12.68;10.88;;;;;;;11.53;71.11;100512.53;10455666;27;20041;-60
2024/03/22 07:43:41;;;;;;;14.20;9.45;;;;;;;11.72;72.10;100521.69;10460132;28;20127;-61
2024/03/22 07:48:42;;;;;;;12.50;10.23;;;;;;;11.66;72.41;100515.88;10437484;28;20701;-61
2024/03/22 07:53:42;;;;;;;12.55;10.15;;;;;;;11.72;72.40;100516.34;10417840;28;20585;-61
2024/03/22 07:58:43;;;;;;;16.50;11.02;;;;;;;11.83;71.96;100524.34;10441737;28;20047;-62
2024/03/22 08:03:43;;;;;;;13.55;10.32;;;;;;;11.93;71.71;100514.63;10445462;28;20474;-61
2024/03/22 08:08:44;;;;;;;11.82;9.80;;;;;;;11.90;70.82;100506.84;10446374;28;20052;-61
2024/03/22 08:13:44;;;;;;;14.65;10.27;;;;;;;11.88;71.21;100491.97;10408419;28;20793;-61
2024/03/22 08:18:45;;;;;;;14.13;11.07;;;;;;;11.97;71.43;100489.41;10435327;28;20155;-62
2024/03/22 08:23:46;;;;;;;19.95;10.70;;;;;;;11.99;71.38;100492.81;10434353;28;20048;-60
2024/03/22 08:28:47;;;;;;;13.35;10.70;;;;;;;11.90;71.60;100469.50;10406038;28;20987;-63
2024/03/22 08:33:47;;;;;;;12.48;9.55;;;;;;;12.07;70.79;100477.94;10419709;28;20170;-61
2024/03/22 08:38:48;;;;;;;12.68;9.73;;;;;;;12.13;70.55;100480.09;10453908;28;20106;-62
2024/03/22 08:43:50;;;;;;;11.77;9.27;;;;;;;12.22;70.58;100482.03;10408028;28;20140;-59
2024/03/22 08:48:50;;;;;;;12.07;9.90;;;;;;;12.35;70.27;100469.31;10402929;28;20167;-62
2024/03/22 08:53:51;;;;;;;13.35;9.60;;;;;;;12.46;69.30;100459.56;10395555;28;20068;-61
2024/03/22 08:58:51;;;;;;;10.13;8.65;;;;;;;12.59;69.04;100454.88;10385533;28;20897;-61
2024/03/22 09:03:51;;;;;;;11.25;9.07;;;;;;;12.82;68.89;100454.69;10405183;28;20076;-61
2024/03/22 09:08:55;;;;;;;14.52;9.18;;;;;;;13.02;67.53;100444.97;10415108;28;20052;-60
2024/03/22 09:13:55;;;;;;;9.40;7.38;;;;;;;13.06;67.44;100411.63;10410095;28;20128;-61
2024/03/22 09:18:57;;;;;;;8.05;7.25;;;;;;;13.34;66.54;100420.75;10407058;28;20048;-64
2024/03/22 09:23:58;;;;;;;9.02;7.57;;;;;;;13.42;65.64;100423.59;10390845;28;20140;-64
2024/03/22 09:28:59;;;;;;;10.02;6.88;;;;;;;13.52;65.52;100428.09;10402534;28;20128;-63
2024/03/22 09:33:59;;;;;;;8.52;6.70;;;;;;;13.67;65.44;100421.34;10410643;28;20075;-62
2024/03/22 09:39:04;;;;;;;7.88;6.78;;;;;;;13.75;64.62;100408.13;10409773;28;20044;-62
2024/03/22 09:44:06;;;;;;;8.65;7.38;;;;;;;13.74;64.49;100406.44;10417545;28;20167;-62
2024/03/22 09:49:10;;;;;;;10.60;7.85;;;;;;;13.87;64.16;100397.28;10408744;28;20049;-63
2024/03/22 09:54:10;;;;;;;8.43;7.40;;;;;;;14.05;64.44;100395.59;10410157;28;20135;-61
2024/03/22 09:59:11;;;;;;;10.68;7.03;;;;;;;14.22;63.27;100391.34;10396764;28;20280;-62
2024/03/22 10:04:11;;;;;;;7.53;6.38;;;;;;;14.42;62.77;100377.91;10373845;28;20054;-62
2024/03/22 10:09:11;;;;;;;9.27;6.65;;;;;;;14.59;62.37;100373.59;10410996;28;20999;-63
2024/03/22 10:14:12;;;;;;;9.05;7.63;;;;;;;14.89;61.13;100364.47;10361800;28;20067;-62
2024/03/22 10:19:13;;;;;;;11.10;8.45;;;;;;;15.13;60.26;100344.31;10408627;28;21175;-62
2024/03/22 10:24:14;;;;;;;7.18;6.40;;;;;;;15.53;59.75;100341.19;10407224;28;20144;-65
2024/03/22 10:29:15;;;;;;;9.93;6.53;;;;;;;15.76;58.46;100335.34;10374470;28;20704;-67
2024/03/22 10:34:17;;;;;;;6.68;5.40;;;;;;;16.13;58.56;100326.25;10407292;28;20053;-67
2024/03/22 10:39:19;;;;;;;7.25;5.72;;;;;;;16.50;56.61;100327.81;10398398;28;20124;-68
2024/03/22 10:44:21;;;;;;;6.03;5.43;;;;;;;16.63;55.58;100308.56;10405262;28;20135;-67
2024/03/22 10:49:21;;;;;;;5.28;4.78;;;;;;;16.70;54.80;100295.31;10411932;28;20135;-69
2024/03/22 10:54:28;;;;;;;7.45;5.53;;;;;;;16.79;54.45;100294.34;10389193;28;20053;-63
2024/03/22 10:59:34;;;;;;;7.13;5.47;;;;;;;16.86;54.54;100290.00;10370298;28;20136;-67
2024/03/22 11:04:39;;;;;;;7.90;5.38;;;;;;;17.35;53.41;100283.06;10393535;28;20147;-67
2024/03/22 11:09:40;;;;;;;6.47;5.40;;;;;;;17.74;52.37;100272.44;10396189;28;20681;-65
2024/03/22 11:14:40;;;;;;;7.60;5.47;;;;;;;19.11;49.48;100268.78;10389115;28;20068;-67
2024/03/22 11:19:41;;;;;;;6.70;5.75;;;;;;;20.22;47.17;100252.97;10389287;28;20279;-67
2024/03/22 11:24:43;;;;;;;6.70;5.22;;;;;;;19.96;48.05;100235.34;10345942;28;20586;-65
2024/03/22 11:29:46;;;;;;;8.85;6.35;;;;;;;19.53;47.71;100221.56;10339542;28;20045;-67
2024/03/22 11:34:47;;;;;;;8.55;5.97;;;;;;;18.96;49.27;100212.06;10405060;28;20891;-67
2024/03/22 11:39:48;;;;;;;6.97;6.28;;;;;;;18.25;50.82;100194.06;10396081;28;20115;-65
2024/03/22 11:44:48;;;;;;;8.50;6.22;;;;;;;17.93;51.93;100206.66;10385051;28;20117;-68
2024/03/22 11:49:50;;;;;;;9.25;6.88;;;;;;;17.60;53.03;100195.94;10401402;28;20450;-66
2024/03/22 11:54:55;;;;;;;8.10;7.00;;;;;;;17.65;53.51;100193.59;10423777;28;20139;-66
2024/03/22 12:00:00;;;;;;;9.77;7.07;;;;;;;17.71;53.19;100188.50;10389289;28;20139;-66
2024/03/22 12:05:04;;;;;;;8.93;7.47;;;;;;;17.76;53.78;100169.97;10352735;28;20626;-68
2024/03/22 12:10:05;;;;;;;11.25;7.35;;;;;;;18.29;52.61;100176.56;10372818;28;20183;-65
2024/03/22 12:15:07;;;;;;;7.75;6.75;;;;;;;18.54;51.96;100157.56;10423730;28;20053;-66
2024/03/22 12:20:09;;;;;;;7.75;6.95;;;;;;;18.93;51.09;100155.81;10412698;28;20141;-66
2024/03/22 12:25:11;;;;;;;7.55;6.13;;;;;;;19.35;50.78;100139.09;10381504;28;20186;-66
2024/03/22 12:30:15;;;;;;;9.43;8.02;;;;;;;18.90;51.12;100144.38;10382515;28;20132;-67
2024/03/22 12:35:15;;;;;;;10.85;7.53;;;;;;;18.49;52.48;100130.31;10367226;28;20799;-68
2024/03/22 12:40:16;;;;;;;8.43;7.57;;;;;;;18.38;52.80;100134.25;10368997;28;20042;-67
2024/03/22 12:45:16;;;;;;;9.73;6.43;;;;;;;18.95;51.83;100130.34;10419602;28;20052;-66
2024/03/22 12:50:17;;;;;;;10.15;7.38;;;;;;;18.88;49.90;100119.41;10412110;28;20120;-66
2024/03/22 12:55:18;;;;;;;10.27;8.38;;;;;;;18.45;50.72;100115.50;10393688;28;20057;-67
2024/03/22 13:00:18;;;;;;;9.90;7.97;;;;;;;18.01;51.65;100106.16;10377158;28;20042;-66
2024/03/22 13:05:20;;;;;;;10.05;7.40;;;;;;;18.05;51.24;100101.25;10389265;28;20073;-66
2024/03/22 13:10:20;;;;;;;9.68;7.28;;;;;;;18.22;50.65;100064.28;10419335;28;20259;-66
2024/03/22 13:15:21;;;;;;;6.88;6.10;;;;;;;18.84;50.43;100074.94;10414496;28;20215;-67
2024/03/22 13:20:22;;;;;;;9.82;8.20;;;;;;;18.65;50.41;100076.28;10434587;28;20122;-68
2024/03/22 13:25:22;;;;;;;9.50;8.30;;;;;;;18.41;51.28;100071.09;10373518;28;20041;-65
2024/03/22 13:30:23;;;;;;;10.80;7.25;;;;;;;18.19;51.82;100050.19;10382520;28;20095;-66
2024/03/22 13:35:23;;;;;;;9.38;7.55;;;;;;;18.26;52.10;100061.06;10393741;28;20053;-67
2024/03/22 13:40:24;;;;;;;9.45;6.97;;;;;;;18.17;51.78;100040.59;10403893;28;20088;-66
2024/03/22 13:45:24;;;;;;;7.82;6.35;;;;;;;18.00;52.58;100037.16;10406610;28;20049;-65
2024/03/22 13:50:26;;;;;;;8.52;7.05;;;;;;;17.81;52.77;100033.03;10419391;28;20160;-68
2024/03/22 13:55:27;;;;;;;8.40;7.60;;;;;;;17.76;53.19;100035.38;10391775;28;20551;-66
2024/03/22 14:00:27;;;;;;;7.63;6.93;;;;;;;17.65;53.54;100039.31;10366274;28;20050;-66
2024/03/22 14:05:28;;;;;;;9.68;8.23;;;;;;;17.49;54.21;100016.00;10407239;28;20199;-67
2024/03/22 14:10:32;;;;;;;13.48;9.23;;;;;;;17.37;54.41;100001.25;10388919;28;20470;-67
2024/03/22 14:15:35;;;;;;;;;;;;;;;17.46;54.48;100001.03;10410553;28;20637;-65
2024/03/22 14:20:35;;;;;;;8.18;7.30;;;;;;;17.47;54.73;100002.72;10395010;28;20020;-66
2024/03/22 14:25:36;;;;;;;9.27;7.63;;;;;;;17.26;54.94;99956.72;10412581;28;20053;-66
2024/03/22 14:30:36;;;;;;;10.55;8.68;;;;;;;17.42;54.58;99988.13;10389661;28;20049;-66
2024/03/22 14:35:37;;;;;;;9.48;8.40;;;;;;;17.33;55.09;99962.28;10407980;28;20080;-69
2024/03/22 14:40:38;;;;;;;9.25;8.20;;;;;;;17.26;55.48;99975.56;10413327;28;20143;-65
2024/03/22 14:45:38;;;;;;;11.10;9.43;;;;;;;17.22;55.78;99967.00;10395953;28;20541;-65
2024/03/22 14:50:40;;;;;;;9.77;8.50;;;;;;;17.25;56.14;99960.44;10415090;28;20322;-66
2024/03/22 14:55:41;;;;;;;10.50;8.65;;;;;;;17.20;55.33;99947.50;10407892;28;20570;-66
2024/03/22 15:00:42;;;;;;;8.95;7.50;;;;;;;17.22;55.56;99934.75;10402318;28;20044;-70
2024/03/22 15:05:43;;;;;;;9.30;8.07;;;;;;;17.31;55.62;99927.47;10420262;28;20566;-66
2024/03/22 15:10:44;;;;;;;8.93;8.02;;;;;;;17.36;55.14;99910.81;10405167;28;20056;-69
2024/03/22 15:15:59;;;;;;;9.48;8.52;;;;;;;17.33;54.81;99897.72;10364047;28;20136;-65
2024/03/22 15:21:01;;;;;;;9.63;8.23;;;;;;;17.36;55.16;99891.97;10411922;28;20160;-65
2024/03/22 15:26:02;;;;;;;12.07;8.95;;;;;;;17.45;55.06;99875.59;10403373;28;20147;-68
2024/03/22 15:31:03;;;;;;;11.60;10.10;;;;;;;17.41;54.93;99865.38;10374662;28;20918;-67
2024/03/22 15:36:04;;;;;;;11.80;9.38;;;;;;;17.36;55.47;99870.44;10408517;28;20068;-66
2024/03/22 15:41:04;;;;;;;12.73;9.90;;;;;;;17.37;55.66;99855.97;10407546;28;20577;-65
2024/03/22 15:46:05;;;;;;;15.32;9.93;;;;;;;17.45;55.28;99853.25;10402063;28;20144;-66
2024/03/22 15:51:05;;;;;;;13.48;9.88;;;;;;;17.44;55.20;99836.28;10413110;28;20387;-70
2024/03/22 15:56:08;;;;;;;13.57;10.70;;;;;;;17.54;54.73;99829.81;10427923;28;20506;-67
2024/03/22 16:01:08;;;;;;;14.20;10.38;;;;;;;17.46;54.99;99801.13;10384242;28;21298;-67
2024/03/22 16:06:09;;;;;;;11.63;9.70;;;;;;;17.59;55.28;99814.78;10408419;28;20132;-66
2024/03/22 16:11:09;;;;;;;13.88;11.80;;;;;;;17.66;55.27;99813.03;10391298;28;20539;-64
2024/03/22 16:16:11;;;;;;;13.18;11.20;;;;;;;17.63;55.32;99799.94;10379005;28;20144;-64
2024/03/22 16:21:13;;;;;;;12.93;11.50;;;;;;;17.67;55.59;99797.75;10374939;28;20491;-67
2024/03/22 16:26:13;;;;;;;13.18;11.63;;;;;;;17.53;55.71;99791.28;10405523;28;20132;-64
2024/03/22 16:31:15;;;;;;;13.40;11.43;;;;;;;17.45;56.32;99791.38;10411700;28;20116;-66
2024/03/22 16:36:16;;;;;;;13.57;10.40;;;;;;;17.47;56.36;99787.47;10379410;28;20658;-67
2024/03/22 16:41:16;;;;;;;15.15;11.70;;;;;;;17.41;56.51;99776.59;10395890;28;20078;-65
2024/03/22 16:46:17;;;;;;;11.53;10.43;;;;;;;17.43;56.83;99779.91;10413110;28;20657;-66
2024/03/22 16:51:19;;;;;;;10.73;9.65;;;;;;;17.38;56.94;99776.94;10388869;28;20298;-65
2024/03/22 16:56:19;;;;;;;13.80;11.27;;;;;;;17.33;57.14;99768.59;10417242;28;20076;-67
2024/03/22 17:01:20;;;;;;;11.77;10.57;;;;;;;17.21;56.51;99760.94;10414968;28;20575;-67
2024/03/22 17:06:21;;;;;;;11.55;10.48;;;;;;;17.05;57.04;99761.03;10399027;28;20128;-67
2024/03/22 17:11:23;;;;;;;12.75;11.05;;;;;;;16.95;56.51;99762.09;10380059;28;20136;-66
2024/03/22 17:16:25;;;;;;;11.70;10.25;;;;;;;16.95;56.40;99762.09;10422488;28;20139;-65
2024/03/22 17:21:25;;;;;;;10.90;9.80;;;;;;;16.91;56.90;99754.56;10386702;28;20175;-67
2024/03/22 17:26:25;;;;;;;11.53;10.40;;;;;;;16.78;56.97;99747.03;10388780;28;20059;-65
2024/03/22 17:31:26;;;;;;;11.75;10.52;;;;;;;16.72;56.94;99747.75;10414504;28;20306;-65
2024/03/22 17:36:27;;;;;;;10.48;9.40;;;;;;;16.69;57.27;99750.78;10418155;28;20316;-67
2024/03/22 17:41:28;;;;;;;10.27;9.25;;;;;;;16.67;57.13;99747.44;10390423;28;20053;-66
2024/03/22 17:46:28;;;;;;;11.93;10.73;;;;;;;16.61;57.25;99741.75;10418067;28;20069;-66
2024/03/22 17:51:29;;;;;;;10.50;9.40;;;;;;;16.51;57.51;99733.06;10406753;28;21871;-66
2024/03/22 17:56:30;;;;;;;12.25;10.57;;;;;;;16.45;57.79;99723.00;10334362;28;20141;-66
2024/03/22 18:01:34;;;;;;;12.25;10.93;;;;;;;16.52;58.27;99744.66;10336277;28;20146;-65
2024/03/22 18:06:34;;;;;;;10.57;9.57;;;;;;;16.46;58.63;99740.81;10392098;28;20136;-66
2024/03/22 18:11:35;;;;;;;10.95;9.85;;;;;;;16.39;58.80;99712.97;10412548;28;20135;-67
2024/03/22 18:16:35;;;;;;;12.48;10.90;;;;;;;16.45;58.91;99725.69;10407774;28;20073;-66
2024/03/22 18:21:40;;;;;;;12.45;11.00;;;;;;;16.43;58.79;99717.81;10412604;28;20064;-66
2024/03/22 18:26:40;;;;;;;12.55;11.20;;;;;;;16.39;59.04;99708.44;10419120;28;20112;-67
2024/03/22 18:31:41;;;;;;;11.02;9.90;;;;;;;16.38;59.27;99709.47;10350998;28;20638;-67
2024/03/22 18:36:43;;;;;;;11.45;10.25;;;;;;;16.36;59.21;99702.56;10373694;28;20057;-67
2024/03/22 18:41:44;;;;;;;11.82;10.57;;;;;;;16.37;59.26;99698.88;10384557;28;20166;-68
2024/03/22 18:46:46;;;;;;;14.68;11.90;;;;;;;16.35;59.51;99690.16;10401165;28;20057;-67
2024/03/22 18:51:48;;;;;;;13.02;11.73;;;;;;;16.30;60.22;99692.53;10354117;28;20195;-66
2024/03/22 18:56:49;;;;;;;14.10;12.10;;;;;;;16.21;60.37;99686.34;10382343;28;20124;-66
2024/03/22 19:01:50;;;;;;;13.98;12.38;;;;;;;16.16;60.73;99688.75;10372287;28;20117;-66
2024/03/22 19:06:51;;;;;;;15.85;12.35;;;;;;;16.09;61.23;99680.53;10371826;28;20056;-66
2024/03/22 19:11:51;;;;;;;13.13;11.77;;;;;;;16.02;61.33;99679.56;10403106;28;20069;-66
2024/03/22 19:16:52;;;;;;;14.90;13.48;;;;;;;15.94;61.99;99671.53;10364213;28;20756;-67
2024/03/22 19:21:53;;;;;;;13.93;12.52;;;;;;;15.90;62.34;99663.00;10411312;28;20132;-66
2024/03/22 19:26:53;;;;;;;16.98;13.88;;;;;;;15.86;62.22;99664.34;10402898;28;20578;-66
2024/03/22 19:31:53;;;;;;;14.95;12.70;;;;;;;15.83;62.81;99657.47;10390965;28;20103;-66
2024/03/22 19:36:54;;;;;;;15.18;12.98;;;;;;;15.81;62.75;99662.19;10408625;28;20823;-66
2024/03/22 19:41:54;;;;;;;15.23;13.57;;;;;;;15.75;62.84;99654.78;10374373;28;20067;-67
2024/03/22 19:47:02;;;;;;;19.90;14.67;;;;;;;15.74;63.14;99651.25;10374119;28;20377;-65
2024/03/22 19:52:02;;;;;;;20.75;17.80;;;;;;;15.72;63.36;99649.75;10364220;28;20288;-67
2024/03/22 19:57:03;;;;;;;16.42;14.52;;;;;;;15.64;63.40;99645.25;10390259;28;20046;-66
2024/03/22 20:02:06;;;;;;;16.38;14.60;;;;;;;15.56;63.56;99642.56;10404484;28;20469;-67
2024/03/22 20:07:06;;;;;;;15.68;14.05;;;;;;;15.47;63.85;99648.97;10406883;28;20677;-67
2024/03/22 20:12:07;;;;;;;16.52;14.85;;;;;;;15.41;64.20;99623.66;10406088;28;20049;-66
2024/03/22 20:17:07;;;;;;;18.30;15.35;;;;;;;15.30;64.48;99627.53;10384856;28;20056;-66
2024/03/22 20:22:09;;;;;;;17.25;15.55;;;;;;;15.29;65.19;99635.75;10376125;28;20077;-68
2024/03/22 20:27:09;;;;;;;17.13;15.30;;;;;;;15.16;65.16;99617.47;10385210;28;20128;-66
2024/03/22 20:32:10;;;;;;;17.75;14.80;;;;;;;15.24;65.01;99616.63;10365309;28;20042;-67
2024/03/22 20:37:12;;;;;;;16.23;14.63;;;;;;;15.20;65.25;99616.16;10388516;28;20119;-67
2024/03/22 20:42:12;;;;;;;16.70;14.38;;;;;;;15.15;65.42;99608.63;10377772;28;20563;-66
2024/03/22 20:47:13;;;;;;;16.07;14.37;;;;;;;15.12;65.34;99603.59;10368696;28;20104;-66
2024/03/22 20:52:14;;;;;;;14.20;12.73;;;;;;;15.04;64.99;99608.94;10415893;28;20294;-66
2024/03/22 20:57:15;;;;;;;13.40;12.05;;;;;;;15.00;65.26;99605.78;10417617;28;20123;-66
2024/03/22 21:02:15;;;;;;;14.82;12.70;;;;;;;14.96;65.11;99606.28;10392918;28;20547;-66
2024/03/22 21:07:16;;;;;;;13.43;12.13;;;;;;;14.91;65.25;99605.97;10403345;28;20059;-67
2024/03/22 21:12:16;;;;;;;12.27;10.97;;;;;;;14.84;64.75;99595.88;10370225;28;20057;-64
2024/03/22 21:17:17;;;;;;;12.18;10.93;;;;;;;14.78;64.59;99585.84;10366711;28;20306;-65
2024/03/22 21:22:18;;;;;;;12.47;9.93;;;;;;;14.71;64.28;99579.47;10401152;28;20060;-65
2024/03/22 21:27:19;;;;;;;10.23;8.93;;;;;;;14.66;64.48;99576.47;10402738;28;20334;-65
2024/03/22 21:32:19;;;;;;;10.93;9.63;;;;;;;14.63;64.17;99566.91;10418634;28;20140;-66
2024/03/22 21:37:20;;;;;;;11.15;10.02;;;;;;;14.59;63.77;99559.34;10392256;28;20145;-67
2024/03/22 21:42:22;;;;;;;10.18;9.18;;;;;;;14.55;63.73;99558.03;10392225;28;20230;-65
2024/03/22 21:47:23;;;;;;;13.32;11.45;;;;;;;14.52;63.92;99547.63;10397767;28;20588;-66
2024/03/22 21:52:24;;;;;;;11.07;10.05;;;;;;;14.49;63.93;99541.59;10432688;28;20799;-66
2024/03/22 21:57:24;;;;;;;10.77;9.23;;;;;;;14.30;63.81;99507.13;10417621;28;20132;-65
2024/03/22 22:02:25;;;;;;;12.23;11.13;;;;;;;14.42;63.58;99521.84;10400045;28;20048;-66
2024/03/22 22:07:26;;;;;;;13.15;11.95;;;;;;;14.36;64.15;99533.22;10408066;28;20136;-66
2024/03/22 22:12:27;;;;;;;10.63;9.63;;;;;;;14.31;63.74;99514.97;10413512;28;20562;-66
2024/03/22 22:17:28;;;;;;;9.70;8.43;;;;;;;14.28;63.28;99509.13;10400194;28;20136;-66
2024/03/22 22:22:29;;;;;;;8.18;7.30;;;;;;;14.28;63.76;99514.50;10397246;28;20127;-66
2024/03/22 22:27:30;;;;;;;8.83;7.70;;;;;;;14.24;63.65;99503.25;10369974;28;20049;-66
2024/03/22 22:32:32;;;;;;;10.18;8.90;;;;;;;14.19;64.00;99499.44;10382731;28;20350;-66
2024/03/22 22:37:33;;;;;;;10.80;8.75;;;;;;;14.13;63.96;99500.91;10404990;28;20136;-65
2024/03/22 22:42:35;;;;;;;9.15;8.30;;;;;;;14.08;64.12;99504.09;10410228;28;20041;-66
2024/03/22 22:47:35;;;;;;;10.35;9.25;;;;;;;14.03;63.90;99495.69;10401983;28;20129;-66